Camas, Washington
Current Conditions -  °F | °C
As of 7:53 PM on Saturday 20 Dec 2014 (Local Time) from KTTD Reporting Station
Light Rain Light Rain  
Wind Chill: 58°   Ceiling: 5500
Heat Index: 58°   Visibility: 10mi
Dew Point: 55°   Wind: 13mph
Humidity: 90%   Direction: 230°SW
Pressure: 29.65"   Gusts: NA
Location:  45.59°N, 122.4°W
Report Text: KTTD 210353Z 23011KT 10SM -RA FEW019 BKN055 OVC090 14/13 A2965 RMK AO2 SLP038 P0004 T01440128
Loading
Personal Weather Stations






























Interactive Weather Map New forecast layout! Learn more

10-Day Weather Forecast

Advertisements
Track Severe Weather on mobile